Time;durP1;ratioP1;P1;durP2;ratioP2;P2;SDS_P1;SDS_P2;PMS_P1;PMS_P2;Temp;Humidity;BMP_temperature;BMP_pressure;BME280_temperature;BME280_humidity;BME280_pressure;Samples;Min_cycle;Max_cycle;Signal;HPM_P1;HPM_P2
2021/03/27 00:05:54;;;;;;;3.67;1.10;;;10.30;99.90;;;;;;11981654;28;20080;-77
2021/03/27 00:11:45;;;;;;;7.72;1.35;;;10.00;99.90;;;;;;11961478;28;20041;-77
2021/03/27 00:17:41;;;;;;;7.25;1.40;;;9.90;99.90;;;;;;11962891;28;20041;-78
2021/03/27 00:23:36;;;;;;;8.52;1.40;;;10.00;99.90;;;;;;11955777;28;20034;-78
2021/03/27 00:29:27;;;;;;;5.72;1.20;;;10.10;99.90;;;;;;11956584;28;20053;-78
2021/03/27 00:35:16;;;;;;;9.88;2.15;;;10.30;99.90;;;;;;11948724;28;20407;-77
2021/03/27 00:41:09;;;;;;;7.88;1.17;;;10.30;99.90;;;;;;11951944;28;20058;-79
2021/03/27 00:46:59;;;;;;;9.98;1.77;;;10.30;99.90;;;;;;11952864;28;20045;-78
2021/03/27 00:52:50;;;;;;;10.35;1.70;;;10.30;99.90;;;;;;11953274;28;20108;-79
2021/03/27 00:58:43;;;;;;;6.13;1.60;;;10.20;99.90;;;;;;11953176;28;20037;-78
2021/03/27 01:04:32;;;;;;;8.50;1.17;;;10.10;99.90;;;;;;11949200;28;20034;-77
2021/03/27 01:10:23;;;;;;;10.60;1.73;;;10.00;99.90;;;;;;11949525;28;20038;-78
2021/03/27 01:16:13;;;;;;;6.63;1.42;;;9.70;99.90;;;;;;11946424;28;20047;-78
2021/03/27 01:22:03;;;;;;;6.53;1.17;;;9.60;99.90;;;;;;11944097;28;20156;-78
2021/03/27 01:27:55;;;;;;;5.75;1.23;;;9.70;99.90;;;;;;11951707;28;20037;-77
2021/03/27 01:33:52;;;;;;;7.78;1.50;;;9.70;99.90;;;;;;11951738;28;20124;-77
2021/03/27 01:39:50;;;;;;;9.65;1.30;;;9.70;99.90;;;;;;11961884;28;20091;-77
2021/03/27 01:46:07;;;;;;;11.70;1.48;;;9.80;99.70;;;;;;11957663;28;20037;-77
2021/03/27 01:52:16;;;;;;;8.38;1.38;;;9.70;99.60;;;;;;11965644;28;20045;-78
2021/03/27 01:58:10;;;;;;;12.98;1.70;;;9.60;99.60;;;;;;11948811;28;20061;-78
2021/03/27 02:04:04;;;;;;;8.20;1.50;;;9.50;99.70;;;;;;11962929;28;20038;-78
2021/03/27 02:10:00;;;;;;;14.07;1.58;;;9.50;99.80;;;;;;11967357;28;20041;-77
2021/03/27 02:15:58;;;;;;;10.77;1.85;;;9.50;99.70;;;;;;11969365;28;20049;-76
2021/03/27 02:21:54;;;;;;;13.85;1.90;;;9.40;99.90;;;;;;11964133;28;20062;-77
2021/03/27 02:27:50;;;;;;;9.00;1.67;;;9.40;99.90;;;;;;11986026;28;20034;-77
2021/03/27 02:33:41;;;;;;;10.18;1.70;;;9.30;99.90;;;;;;11960155;28;20052;-79
2021/03/27 02:39:38;;;;;;;16.33;2.28;;;9.00;99.90;;;;;;11992081;28;20504;-77
2021/03/27 02:45:29;;;;;;;10.02;1.70;;;8.70;99.90;;;;;;12007133;28;20049;-77
2021/03/27 02:51:24;;;;;;;10.52;2.33;;;8.60;99.90;;;;;;12015186;28;20499;-78
2021/03/27 02:57:16;;;;;;;9.75;1.85;;;8.90;99.90;;;;;;11971348;28;20056;-77
2021/03/27 03:03:05;;;;;;;10.45;1.58;;;9.00;99.90;;;;;;11989948;28;20052;-78
2021/03/27 03:09:07;;;;;;;10.38;2.15;;;9.10;99.90;;;;;;11985072;28;20499;-79
2021/03/27 03:15:00;;;;;;;9.82;2.17;;;9.20;99.90;;;;;;11961318;28;20507;-78
2021/03/27 03:20:54;;;;;;;14.40;2.17;;;9.20;99.70;;;;;;11959732;28;20100;-77
2021/03/27 03:26:59;;;;;;;7.28;1.80;;;9.20;99.80;;;;;;11954576;28;20425;-76
2021/03/27 03:32:53;;;;;;;5.10;1.67;;;9.20;99.90;;;;;;11964373;28;20034;-78
2021/03/27 03:39:08;;;;;;;9.18;2.40;;;9.30;99.30;;;;;;11961284;28;20034;-78
2021/03/27 03:45:07;;;;;;;16.75;2.53;;;9.20;99.20;;;;;;11959899;28;20034;-77
2021/03/27 03:50:57;;;;;;;10.27;2.15;;;9.20;99.20;;;;;;11958851;28;20041;-78
2021/03/27 03:56:48;;;;;;;12.75;2.47;;;9.30;99.20;;;;;;11962673;28;20065;-78
2021/03/27 04:02:42;;;;;;;11.45;2.50;;;9.00;99.30;;;;;;11960538;28;20029;-77
2021/03/27 04:08:35;;;;;;;10.93;2.28;;;9.10;99.50;;;;;;11951446;28;20046;-77
2021/03/27 04:14:51;;;;;;;12.10;2.35;;;8.90;99.60;;;;;;11952204;28;20041;-78
2021/03/27 04:20:48;;;;;;;10.32;2.10;;;8.90;99.60;;;;;;11953108;28;20468;-78
2021/03/27 04:26:48;;;;;;;13.90;2.70;;;8.80;99.40;;;;;;11945395;28;20033;-78
2021/03/27 04:32:47;;;;;;;14.10;2.45;;;8.90;99.40;;;;;;11954111;28;20741;-79
2021/03/27 04:38:40;;;;;;;14.40;2.50;;;8.80;99.30;;;;;;11953608;28;20037;-78
2021/03/27 04:44:34;;;;;;;18.23;2.58;;;8.60;99.70;;;;;;11952959;28;20049;-79
2021/03/27 04:50:28;;;;;;;12.25;2.35;;;8.70;99.70;;;;;;11949149;28;20034;-76
2021/03/27 04:56:19;;;;;;;16.38;2.60;;;8.70;99.90;;;;;;11951118;28;20033;-78
2021/03/27 05:02:10;;;;;;;9.55;2.08;;;8.80;99.60;;;;;;11947442;28;20037;-77
2021/03/27 05:08:12;;;;;;;10.88;2.22;;;8.80;99.40;;;;;;11942999;28;20041;-77
2021/03/27 05:14:07;;;;;;;19.70;2.47;;;8.80;99.20;;;;;;11952665;28;20112;-76
2021/03/27 05:20:00;;;;;;;15.15;2.33;;;8.70;99.20;;;;;;11949784;28;20061;-78
2021/03/27 05:25:59;;;;;;;15.65;2.50;;;8.80;99.20;;;;;;11941886;28;20072;-78
2021/03/27 05:31:54;;;;;;;11.95;2.63;;;8.60;99.30;;;;;;11949224;28;20030;-78
2021/03/27 05:37:52;;;;;;;11.65;1.90;;;8.60;99.60;;;;;;11943218;28;20132;-78
2021/03/27 05:43:56;;;;;;;14.23;2.33;;;8.80;99.10;;;;;;11947399;28;20041;-77
2021/03/27 05:50:16;;;;;;;15.40;3.10;;;8.80;99.00;;;;;;11946966;28;20293;-78
2021/03/27 05:56:20;;;;;;;20.80;2.80;;;9.00;98.70;;;;;;11949167;28;20049;-77
2021/03/27 06:02:18;;;;;;;12.80;2.53;;;9.00;98.80;;;;;;11944531;28;20115;-79
2021/03/27 06:08:34;;;;;;;16.33;2.38;;;9.00;98.80;;;;;;11949218;28;20042;-77
2021/03/27 06:15:07;;;;;;;13.75;2.30;;;9.10;98.60;;;;;;11949391;28;20096;-77
2021/03/27 06:21:10;;;;;;;14.77;2.80;;;9.10;98.50;;;;;;11814481;28;20069;-78
2021/03/27 06:27:34;;;;;;;8.95;2.22;;;9.20;98.30;;;;;;11807049;28;20058;-78
2021/03/27 06:34:17;;;;;;;13.23;2.28;;;9.20;98.30;;;;;;11674113;29;20056;-77
2021/03/27 06:40:25;;;;;;;14.57;3.13;;;9.20;98.10;;;;;;11406517;29;20100;-77
2021/03/27 06:46:53;;;;;;;9.27;2.28;;;9.30;97.90;;;;;;11410727;29;20133;-78
2021/03/27 06:52:49;;;;;;;15.93;2.38;;;9.20;98.10;;;;;;11476500;29;20422;-78
2021/03/27 06:59:18;;;;;;;14.10;2.90;;;9.10;98.30;;;;;;11506344;29;20227;-78
2021/03/27 07:05:50;;;;;;;17.80;2.47;;;9.30;98.40;;;;;;11528591;29;20112;-77
2021/03/27 07:11:57;;;;;;;21.33;2.60;;;9.30;98.10;;;;;;11683387;28;20046;-80
2021/03/27 07:17:51;;;;;;;15.88;2.47;;;9.00;98.60;;;;;;11863482;28;20054;-78
2021/03/27 07:24:10;;;;;;;11.53;2.10;;;8.90;98.60;;;;;;11889533;28;20049;-78
2021/03/27 07:30:27;;;;;;;16.45;3.17;;;9.10;99.00;;;;;;11953874;28;20356;-78
2021/03/27 07:37:04;;;;;;;18.48;3.10;;;9.30;98.50;;;;;;11953222;28;20033;-78
2021/03/27 07:43:16;;;;;;;20.08;2.92;;;9.20;98.50;;;;;;11946187;28;20026;-78
2021/03/27 07:49:46;;;;;;;18.70;2.75;;;9.40;98.50;;;;;;11954915;28;20041;-78
2021/03/27 07:56:13;;;;;;;19.35;2.42;;;9.50;98.40;;;;;;11974040;28;20041;-79
2021/03/27 08:02:20;;;;;;;17.75;2.67;;;9.50;98.10;;;;;;11771408;29;20043;-78
2021/03/27 08:08:36;;;;;;;24.55;3.95;;;9.70;98.30;;;;;;11764992;29;20055;-77
2021/03/27 08:14:36;;;;;;;15.93;2.75;;;9.60;98.60;;;;;;11634027;29;20044;-77
2021/03/27 08:20:38;;;;;;;23.33;3.17;;;9.80;97.80;;;;;;11628611;29;20064;-79
2021/03/27 08:26:44;;;;;;;18.85;2.50;;;9.90;97.60;;;;;;11627195;29;20064;-79
2021/03/27 08:33:18;;;;;;;19.98;2.95;;;9.90;98.10;;;;;;11608990;29;20044;-78
2021/03/27 08:39:40;;;;;;;14.35;2.70;;;9.80;97.80;;;;;;11827670;28;20341;-78
2021/03/27 08:46:03;;;;;;;25.20;2.80;;;9.70;98.20;;;;;;11853778;28;20069;-78
2021/03/27 08:52:01;;;;;;;12.77;2.30;;;9.90;98.10;;;;;;11937557;28;20073;-78
2021/03/27 08:58:23;;;;;;;16.10;2.80;;;10.30;97.90;;;;;;11944943;28;20033;-77
2021/03/27 09:04:38;;;;;;;13.05;2.47;;;10.20;97.40;;;;;;11964367;28;20049;-78
2021/03/27 09:10:47;;;;;;;21.75;3.00;;;10.20;97.20;;;;;;11928616;28;20045;-77
2021/03/27 09:16:56;;;;;;;14.45;2.65;;;10.60;97.20;;;;;;11936961;28;20069;-78
2021/03/27 09:23:19;;;;;;;18.92;4.72;;;10.80;96.90;;;;;;11951311;28;20034;-79
2021/03/27 09:29:27;;;;;;;20.90;2.33;;;10.70;97.60;;;;;;11946098;28;20037;-79
2021/03/27 09:35:37;;;;;;;14.48;2.78;;;10.50;96.30;;;;;;11969537;28;20046;-80
2021/03/27 09:41:42;;;;;;;13.65;2.42;;;10.60;96.70;;;;;;11951551;28;20413;-79
2021/03/27 09:47:47;;;;;;;12.68;2.85;;;10.70;96.30;;;;;;11948537;28;20041;-80
2021/03/27 09:53:57;;;;;;;18.50;2.70;;;10.90;95.90;;;;;;11940946;28;20021;-80
2021/03/27 09:59:46;;;;;;;12.52;1.70;;;10.90;96.00;;;;;;11942428;28;20108;-80
2021/03/27 10:05:39;;;;;;;13.23;1.85;;;11.10;95.60;;;;;;11954903;28;20469;-80
2021/03/27 10:11:31;;;;;;;16.93;4.47;;;11.60;95.00;;;;;;11931237;28;20038;-79
2021/03/27 10:17:26;;;;;;;11.32;2.17;;;11.80;93.70;;;;;;11944105;28;20041;-79
2021/03/27 10:23:33;;;;;;;12.27;2.25;;;11.70;93.70;;;;;;11953233;28;20472;-79
2021/03/27 10:29:37;;;;;;;15.65;2.42;;;11.80;94.20;;;;;;11944133;28;20042;-81
2021/03/27 10:35:39;;;;;;;;;;;11.70;93.70;;;;;;11940398;28;20064;-83
2021/03/27 10:41:35;;;;;;;11.55;2.00;;;11.80;93.30;;;;;;11942030;28;19933;-78
2021/03/27 10:47:30;;;;;;;7.78;1.58;;;11.80;93.30;;;;;;11951641;28;20037;-78
2021/03/27 10:53:25;;;;;;;13.27;2.33;;;11.80;91.80;;;;;;11949169;28;20053;-80
2021/03/27 10:59:37;;;;;;;7.55;1.75;;;12.00;91.70;;;;;;11956103;28;20033;-80
2021/03/27 11:06:06;;;;;;;17.38;4.00;;;12.10;91.40;;;;;;11967391;28;20048;-80
2021/03/27 11:12:26;;;;;;;13.20;1.83;;;12.10;90.50;;;;;;11935602;28;20102;-79
2021/03/27 11:18:39;;;;;;;15.15;2.08;;;12.10;90.90;;;;;;11964510;28;20394;-79
2021/03/27 11:24:39;;;;;;;7.70;2.20;;;12.10;91.10;;;;;;11949469;28;20048;-78
2021/03/27 11:30:37;;;;;;;8.48;1.83;;;12.10;90.50;;;;;;11956615;28;20056;-78
2021/03/27 11:36:31;;;;;;;13.20;2.33;;;12.40;89.80;;;;;;11952850;28;20058;-80
2021/03/27 11:42:28;;;;;;;7.05;2.03;;;12.60;88.80;;;;;;11949081;28;20053;-81
2021/03/27 11:48:18;;;;;;;13.18;2.05;;;12.90;87.60;;;;;;11951965;28;20037;-81
2021/03/27 11:54:27;;;;;;;247.75;125.57;;;13.10;87.60;;;;;;11963437;28;20113;-79
2021/03/27 12:00:47;;;;;;;14.93;1.92;;;13.10;85.90;;;;;;11936344;28;20076;-76
2021/03/27 12:06:40;;;;;;;7.90;1.75;;;13.30;86.10;;;;;;11947865;28;20045;-76
2021/03/27 12:12:40;;;;;;;10.77;1.70;;;13.20;84.20;;;;;;11935409;28;20413;-77
2021/03/27 12:18:56;;;;;;;11.23;1.90;;;12.80;85.30;;;;;;11947123;28;20566;-76
2021/03/27 12:24:52;;;;;;;12.90;2.10;;;12.80;86.30;;;;;;11929615;28;20053;-75
2021/03/27 12:30:49;;;;;;;7.90;1.33;;;12.70;88.20;;;;;;11936309;28;20046;-76
2021/03/27 12:36:41;;;;;;;10.30;1.67;;;13.00;87.40;;;;;;11940176;28;20041;-76
2021/03/27 12:42:34;;;;;;;7.70;1.60;;;12.90;86.50;;;;;;11937187;28;20043;-77
2021/03/27 12:48:33;;;;;;;10.80;1.77;;;13.20;85.00;;;;;;11943130;28;20049;-78
2021/03/27 12:54:36;;;;;;;317.13;190.73;;;12.90;86.80;;;;;;11949470;28;20029;-81
2021/03/27 13:00:58;;;;;;;8.40;1.63;;;13.40;85.90;;;;;;11944080;28;20441;-78
2021/03/27 13:07:11;;;;;;;13.95;1.75;;;12.90;85.90;;;;;;11941531;28;20413;-80
2021/03/27 13:13:22;;;;;;;10.65;1.58;;;13.20;87.90;;;;;;11939851;28;20041;-77
2021/03/27 13:19:21;;;;;;;10.23;1.63;;;13.50;86.30;;;;;;11950810;28;20057;-77
2021/03/27 13:25:20;;;;;;;16.27;2.03;;;13.90;83.30;;;;;;11950091;28;20423;-77
2021/03/27 13:31:11;;;;;;;14.73;1.88;;;14.10;83.10;;;;;;11950664;28;20889;-78
2021/03/27 13:37:09;;;;;;;10.18;1.80;;;14.20;82.30;;;;;;11961327;28;20041;-78
2021/03/27 13:43:09;;;;;;;8.30;1.65;;;14.10;79.70;;;;;;11951834;28;20060;-79
2021/03/27 13:49:03;;;;;;;8.15;1.48;;;14.30;80.30;;;;;;11957678;28;20037;-78
2021/03/27 13:54:53;;;;;;;13.90;1.70;;;14.60;78.20;;;;;;11948444;28;20037;-79
2021/03/27 14:00:48;;;;;;;12.02;1.70;;;14.40;79.50;;;;;;11950909;28;20038;-78
2021/03/27 14:06:38;;;;;;;17.10;2.10;;;14.50;79.70;;;;;;11989010;28;20193;-77
2021/03/27 14:12:32;;;;;;;7.57;1.60;;;14.60;79.80;;;;;;11952776;28;20038;-79
2021/03/27 14:18:42;;;;;;;7.75;1.45;;;15.00;78.10;;;;;;11946657;28;20061;-78
2021/03/27 14:24:38;;;;;;;5.70;1.73;;;14.90;74.60;;;;;;11949950;28;20065;-77
2021/03/27 14:30:47;;;;;;;7.10;1.30;;;14.70;74.30;;;;;;11952497;28;20049;-77
2021/03/27 14:36:44;;;;;;;4.88;1.08;;;14.30;75.40;;;;;;11949417;28;20646;-76
2021/03/27 14:42:51;;;;;;;4.38;1.02;;;14.40;75.60;;;;;;11948482;28;20822;-77
2021/03/27 14:48:51;;;;;;;3.97;1.10;;;14.20;77.00;;;;;;11952750;28;20443;-76
2021/03/27 14:54:51;;;;;;;5.85;1.20;;;14.20;77.00;;;;;;11948366;28;20056;-77
2021/03/27 15:00:49;;;;;;;6.78;1.63;;;14.30;76.30;;;;;;11952121;28;20121;-77
2021/03/27 15:06:56;;;;;;;7.10;1.58;;;14.30;76.60;;;;;;11948356;28;20108;-77
2021/03/27 15:12:46;;;;;;;4.72;1.30;;;14.30;76.80;;;;;;11949586;28;20115;-78
2021/03/27 15:18:38;;;;;;;11.48;1.70;;;14.40;75.90;;;;;;11947464;28;20503;-76
2021/03/27 15:24:32;;;;;;;7.75;1.50;;;14.80;73.20;;;;;;11947024;28;20099;-77
2021/03/27 15:30:25;;;;;;;6.75;1.23;;;15.20;72.20;;;;;;11957802;28;20504;-77
2021/03/27 15:36:19;;;;;;;6.88;1.40;;;15.10;71.60;;;;;;11949353;28;20409;-77
2021/03/27 15:42:13;;;;;;;7.38;1.27;;;14.70;71.20;;;;;;11947983;28;20155;-78
2021/03/27 15:48:06;;;;;;;8.35;1.35;;;14.80;71.60;;;;;;11949650;28;20096;-77
2021/03/27 15:54:09;;;;;;;4.23;1.27;;;15.10;71.40;;;;;;11948408;28;20037;-74
2021/03/27 16:00:08;;;;;;;6.57;1.23;;;15.30;70.00;;;;;;11947781;28;20121;-74
2021/03/27 16:06:00;;;;;;;6.72;1.20;;;15.00;69.50;;;;;;11944144;28;20539;-74
2021/03/27 16:12:06;;;;;;;7.40;1.13;;;14.50;71.50;;;;;;11944532;28;20036;-75
2021/03/27 16:18:34;;;;;;;6.88;1.35;;;14.80;72.00;;;;;;11948347;28;20041;-76
2021/03/27 16:24:32;;;;;;;10.10;1.40;;;14.90;70.90;;;;;;11957149;28;20064;-76
2021/03/27 16:30:29;;;;;;;7.57;1.35;;;14.90;71.10;;;;;;11948516;28;20040;-74
2021/03/27 16:36:30;;;;;;;14.27;2.17;;;14.70;72.00;;;;;;11942379;28;20038;-76
2021/03/27 16:42:58;;;;;;;7.63;1.73;;;14.70;72.60;;;;;;11956536;28;20057;-75
2021/03/27 16:49:11;;;;;;;7.82;1.30;;;14.90;72.80;;;;;;11944176;28;20037;-76
2021/03/27 16:55:13;;;;;;;5.80;1.48;;;15.00;71.40;;;;;;11950176;28;20037;-75
2021/03/27 17:01:12;;;;;;;5.95;1.60;;;14.70;72.60;;;;;;11951898;28;20607;-73
2021/03/27 17:07:06;;;;;;;8.90;1.98;;;14.40;72.30;;;;;;11937322;28;20063;-75
2021/03/27 17:13:01;;;;;;;7.80;1.83;;;14.50;73.30;;;;;;11942109;28;20468;-75
2021/03/27 17:19:06;;;;;;;8.27;1.77;;;14.30;74.50;;;;;;11943774;28;20132;-74
2021/03/27 17:25:02;;;;;;;9.70;1.83;;;14.10;74.70;;;;;;11937323;28;20041;-74
2021/03/27 17:30:59;;;;;;;9.65;1.52;;;14.00;75.10;;;;;;11943855;28;20069;-75
2021/03/27 17:36:58;;;;;;;8.82;1.60;;;14.00;76.40;;;;;;11944748;28;20045;-74
2021/03/27 17:42:50;;;;;;;12.02;1.88;;;13.90;77.80;;;;;;11944458;28;20073;-75
2021/03/27 17:48:58;;;;;;;10.68;1.90;;;13.80;79.10;;;;;;11941578;28;20046;-75
2021/03/27 17:54:55;;;;;;;11.48;1.80;;;13.90;78.90;;;;;;11948091;28;20077;-76
2021/03/27 18:00:46;;;;;;;12.98;2.45;;;13.70;79.90;;;;;;11938349;28;20578;-76
2021/03/27 18:06:40;;;;;;;135.93;68.53;;;13.90;80.20;;;;;;11944325;28;20041;-76
2021/03/27 18:12:32;;;;;;;6.28;2.08;;;13.90;80.00;;;;;;11925837;28;20061;-73
2021/03/27 18:18:24;;;;;;;10.30;2.33;;;13.90;80.20;;;;;;11942594;28;20057;-73
2021/03/27 18:24:26;;;;;;;10.50;2.05;;;13.90;80.50;;;;;;11942957;28;20579;-72
2021/03/27 18:30:26;;;;;;;8.80;2.13;;;14.00;80.70;;;;;;11946742;28;20109;-73
2021/03/27 18:36:18;;;;;;;9.68;2.35;;;13.90;80.90;;;;;;11949138;28;20045;-73
2021/03/27 18:42:14;;;;;;;10.63;2.42;;;13.90;81.00;;;;;;11946260;28;20037;-74
2021/03/27 18:48:05;;;;;;;11.23;2.50;;;13.90;81.40;;;;;;11947516;28;20399;-74
2021/03/27 18:54:04;;;;;;;15.07;2.83;;;13.90;83.00;;;;;;11948016;28;20040;-72
2021/03/27 19:00:15;;;;;;;10.73;2.75;;;13.80;83.60;;;;;;11946636;28;20033;-74
2021/03/27 19:06:07;;;;;;;6.55;2.22;;;13.80;84.30;;;;;;11939931;28;20052;-74
2021/03/27 19:11:53;;;;;;;9.90;3.25;;;13.70;86.10;;;;;;11940005;28;20488;-73
2021/03/27 19:17:52;;;;;;;12.40;2.88;;;13.50;86.90;;;;;;11943753;28;20500;-73
2021/03/27 19:23:45;;;;;;;10.68;2.80;;;13.40;87.80;;;;;;11945692;28;20046;-73
2021/03/27 19:29:34;;;;;;;16.77;5.05;;;13.30;88.80;;;;;;11945134;28;20074;-75
2021/03/27 19:35:24;;;;;;;16.77;5.18;;;13.10;88.70;;;;;;11948055;28;20514;-74
2021/03/27 19:41:12;;;;;;;19.00;4.82;;;13.10;88.80;;;;;;11946691;28;20049;-75
2021/03/27 19:47:02;;;;;;;14.77;6.13;;;13.00;88.60;;;;;;11945054;28;20908;-73
2021/03/27 19:53:00;;;;;;;16.20;5.65;;;13.00;88.80;;;;;;11946695;28;20025;-75
2021/03/27 19:58:47;;;;;;;12.15;4.82;;;13.00;89.50;;;;;;11943317;28;20114;-73
2021/03/27 20:04:43;;;;;;;14.88;4.07;;;13.00;89.30;;;;;;11940237;28;20117;-73
2021/03/27 20:10:36;;;;;;;14.57;4.60;;;13.00;89.20;;;;;;11943664;28;20188;-73
2021/03/27 20:16:29;;;;;;;19.08;5.00;;;12.90;89.30;;;;;;11944113;28;20049;-73
2021/03/27 20:22:21;;;;;;;18.70;4.72;;;12.80;89.70;;;;;;11943787;28;20076;-73
2021/03/27 20:28:17;;;;;;;27.17;8.75;;;12.70;89.60;;;;;;11941305;28;20061;-73
2021/03/27 20:34:10;;;;;;;20.17;7.03;;;12.60;90.00;;;;;;11937437;28;20532;-73
2021/03/27 20:40:04;;;;;;;25.00;10.80;;;12.50;90.40;;;;;;11949076;28;20052;-73
2021/03/27 20:45:54;;;;;;;14.30;5.00;;;12.50;90.20;;;;;;11938461;28;20063;-73
2021/03/27 20:51:54;;;;;;;16.38;4.60;;;12.50;90.10;;;;;;11933963;28;20436;-72
2021/03/27 20:57:43;;;;;;;16.65;4.68;;;12.40;90.40;;;;;;11941864;28;20037;-73
2021/03/27 21:03:36;;;;;;;14.38;4.80;;;12.40;90.60;;;;;;11937751;28;20629;-73
2021/03/27 21:10:00;;;;;;;41.00;15.03;;;12.30;90.50;;;;;;11943604;28;20444;-73
2021/03/27 21:16:06;;;;;;;20.67;3.92;;;12.20;90.80;;;;;;11939859;28;20123;-73
2021/03/27 21:22:08;;;;;;;13.05;3.85;;;12.20;90.70;;;;;;11941648;28;20049;-74
2021/03/27 21:28:10;;;;;;;11.77;3.40;;;12.10;91.00;;;;;;11944144;28;20505;-73
2021/03/27 21:34:23;;;;;;;11.50;3.65;;;12.00;91.20;;;;;;11941074;28;20118;-72
2021/03/27 21:40:16;;;;;;;19.07;5.17;;;11.90;91.30;;;;;;11947488;28;20029;-74
2021/03/27 21:46:19;;;;;;;13.25;4.00;;;11.80;91.50;;;;;;11951764;28;20937;-72
2021/03/27 21:52:29;;;;;;;15.68;4.25;;;11.80;91.50;;;;;;11941375;28;20045;-72
2021/03/27 21:58:22;;;;;;;15.32;4.50;;;11.80;91.50;;;;;;11944667;28;20156;-72
2021/03/27 22:04:25;;;;;;;16.15;4.57;;;11.70;91.60;;;;;;11951819;28;20037;-71
2021/03/27 22:10:22;;;;;;;16.57;6.07;;;11.70;91.60;;;;;;11948491;28;20039;-72
2021/03/27 22:16:23;;;;;;;15.75;3.80;;;11.70;91.50;;;;;;11949969;28;20042;-72
2021/03/27 22:22:33;;;;;;;15.93;4.32;;;11.70;91.50;;;;;;11950780;28;20034;-72
2021/03/27 22:28:27;;;;;;;18.27;4.95;;;11.70;91.50;;;;;;11949956;28;20041;-72
2021/03/27 22:34:16;;;;;;;;;;;11.70;91.60;;;;;;11945471;28;20177;-72
2021/03/27 22:40:06;;;;;;;13.80;3.50;;;11.70;91.60;;;;;;11945087;28;20396;-72
2021/03/27 22:45:58;;;;;;;13.65;3.33;;;11.70;91.60;;;;;;11949250;28;20454;-73
2021/03/27 22:51:49;;;;;;;16.52;4.10;;;11.70;92.00;;;;;;11952544;28;20099;-71
2021/03/27 22:57:41;;;;;;;18.85;7.97;;;11.70;92.10;;;;;;11948524;28;20053;-71
2021/03/27 23:03:40;;;;;;;39.25;16.67;;;11.80;92.10;;;;;;11948019;28;20084;-71
2021/03/27 23:09:37;;;;;;;40.63;18.02;;;11.90;92.40;;;;;;11950583;28;20103;-72
2021/03/27 23:15:28;;;;;;;28.20;11.27;;;11.90;92.50;;;;;;11947695;28;20067;-72
2021/03/27 23:21:26;;;;;;;16.85;5.32;;;11.90;92.40;;;;;;11948512;28;20528;-73
2021/03/27 23:27:34;;;;;;;18.85;7.45;;;11.90;92.30;;;;;;11953427;28;20045;-72
2021/03/27 23:33:29;;;;;;;12.50;4.63;;;11.90;92.50;;;;;;11945386;28;20029;-73
2021/03/27 23:39:21;;;;;;;17.88;6.55;;;12.00;92.60;;;;;;11952935;28;20972;-73
2021/03/27 23:45:23;;;;;;;22.15;9.80;;;12.00;92.60;;;;;;11951552;28;20045;-72
2021/03/27 23:51:19;;;;;;;21.58;9.48;;;12.00;92.70;;;;;;11949884;28;20084;-71
2021/03/27 23:57:14;;;;;;;16.38;5.65;;;12.00;93.10;;;;;;11943265;28;20034;-73
